createdAt,value
2018-07-16T00:00:52.216Z,20.10
2018-07-16T00:03:21.480Z,20.10
2018-07-16T00:05:51.432Z,20.00
2018-07-16T00:08:20.772Z,20.10
2018-07-16T00:13:19.446Z,20.20
2018-07-16T00:15:48.812Z,20.10
2018-07-16T00:18:18.600Z,20.30
2018-07-16T00:20:47.861Z,20.10
2018-07-16T00:23:18.387Z,20.00
2018-07-16T00:25:47.747Z,19.80
2018-07-16T00:30:46.872Z,19.70
2018-07-16T00:33:16.812Z,20.00
2018-07-16T00:35:46.059Z,19.70
2018-07-16T00:38:15.279Z,19.60
2018-07-16T00:40:44.528Z,19.70
2018-07-16T00:45:42.751Z,19.80
2018-07-16T00:48:19.180Z,19.70
2018-07-16T00:50:48.418Z,19.80
2018-07-16T00:55:47.238Z,19.50
2018-07-16T00:58:16.378Z,19.70
2018-07-16T01:00:45.661Z,19.70
2018-07-16T01:03:17.564Z,19.90
2018-07-16T01:05:46.834Z,19.80
2018-07-16T01:08:16.067Z,19.80
2018-07-16T01:10:45.334Z,19.60
2018-07-16T01:13:14.696Z,19.40
2018-07-16T01:15:45.672Z,19.20
2018-07-16T01:18:14.969Z,19.10
2018-07-16T01:20:44.917Z,19.10
2018-07-16T01:23:14.229Z,19.20
2018-07-16T01:25:43.963Z,19.20
2018-07-16T01:28:13.178Z,19.00
2018-07-16T01:30:43.158Z,18.90
2018-07-16T01:33:12.411Z,18.90
2018-07-16T01:35:41.672Z,18.90
2018-07-16T01:38:10.967Z,19.30
2018-07-16T01:40:40.824Z,19.20
2018-07-16T01:43:10.096Z,19.30
2018-07-16T01:45:39.408Z,19.00
2018-07-16T01:48:08.778Z,19.00
2018-07-16T01:50:38.046Z,18.80
2018-07-16T01:53:07.610Z,19.00
2018-07-16T01:55:37.022Z,19.30
2018-07-16T01:58:06.340Z,19.20
2018-07-16T02:00:45.480Z,18.90
2018-07-16T02:03:15.732Z,18.80
2018-07-16T02:05:45.292Z,18.50
2018-07-16T02:08:14.592Z,18.40
2018-07-16T02:10:44.832Z,18.20
2018-07-16T02:13:14.064Z,18.20
2018-07-16T02:15:43.410Z,18.10
2018-07-16T02:18:13.608Z,18.60
2018-07-16T02:20:43.372Z,18.50
2018-07-16T02:23:13.140Z,18.50
2018-07-16T02:25:42.583Z,18.40
2018-07-16T02:28:12.484Z,18.30
2018-07-16T02:30:41.955Z,18.10
2018-07-16T02:33:12.513Z,17.90
2018-07-16T02:35:41.843Z,18.10
2018-07-16T02:38:11.092Z,17.90
2018-07-16T02:40:40.385Z,17.80
2018-07-16T02:43:09.635Z,17.90
2018-07-16T02:45:39.006Z,17.70
2018-07-16T02:48:08.383Z,17.60
2018-07-16T02:50:38.362Z,17.50
2018-07-16T02:53:07.655Z,17.40
2018-07-16T02:55:36.988Z,17.40
2018-07-16T03:00:36.784Z,16.90
2018-07-16T03:03:06.110Z,16.70
2018-07-16T03:05:35.389Z,16.60
2018-07-16T03:08:05.004Z,16.60
2018-07-16T03:10:34.294Z,16.50
2018-07-16T03:13:10.101Z,16.50
2018-07-16T03:15:39.428Z,16.60
2018-07-16T03:18:08.792Z,16.50
2018-07-16T03:20:38.950Z,16.40
2018-07-16T03:23:08.367Z,16.30
2018-07-16T03:25:37.673Z,16.40
2018-07-16T03:28:06.948Z,16.30
2018-07-16T03:30:36.784Z,16.20
2018-07-16T03:33:06.858Z,16.20
2018-07-16T03:35:36.128Z,16.20
2018-07-16T03:38:05.799Z,16.30
2018-07-16T03:40:35.063Z,16.40
2018-07-16T03:43:04.892Z,16.40
2018-07-16T03:45:34.254Z,16.40
2018-07-16T03:48:03.635Z,16.40
2018-07-16T03:50:32.815Z,16.50
2018-07-16T03:53:02.110Z,16.50
2018-07-16T03:55:31.471Z,16.60
2018-07-16T03:58:01.095Z,16.90
2018-07-16T04:00:30.558Z,16.90
2018-07-16T04:02:59.877Z,16.90
2018-07-16T04:05:29.203Z,16.70
2018-07-16T04:07:59.201Z,16.60
2018-07-16T04:10:28.459Z,16.60
2018-07-16T04:12:57.700Z,16.50
2018-07-16T04:15:27.016Z,16.70
2018-07-16T04:17:56.331Z,16.60
2018-07-16T04:20:25.646Z,16.70
2018-07-16T04:22:54.912Z,16.70
2018-07-16T04:25:24.119Z,16.70
2018-07-16T04:27:53.391Z,16.60
2018-07-16T04:30:22.683Z,16.80
2018-07-16T04:32:51.972Z,17.00
2018-07-16T04:35:21.294Z,17.10
2018-07-16T04:37:50.756Z,17.20
2018-07-16T04:40:20.045Z,17.10
2018-07-16T04:42:49.308Z,17.30
2018-07-16T04:45:18.629Z,17.30
2018-07-16T04:47:47.952Z,17.20
2018-07-16T04:50:17.303Z,17.30
2018-07-16T04:52:46.992Z,17.40
2018-07-16T04:55:16.379Z,17.40
2018-07-16T04:57:45.851Z,17.60
2018-07-16T05:00:15.171Z,17.80
2018-07-16T05:02:44.964Z,17.80
2018-07-16T05:05:14.535Z,17.90
2018-07-16T05:07:43.844Z,17.90
2018-07-16T05:10:13.159Z,17.90
2018-07-16T05:12:42.456Z,18.00
2018-07-16T05:15:11.744Z,18.00
2018-07-16T05:17:40.995Z,18.10
2018-07-16T05:20:10.572Z,18.10
2018-07-16T05:22:39.831Z,18.20
2018-07-16T05:25:09.237Z,18.20
2018-07-16T05:27:38.478Z,18.20
2018-07-16T05:30:07.843Z,18.70
2018-07-16T05:32:37.554Z,18.80
2018-07-16T05:35:06.508Z,18.70
2018-07-16T05:37:35.892Z,18.60
2018-07-16T05:40:05.660Z,18.60
2018-07-16T05:42:35.140Z,18.70
2018-07-16T05:45:04.467Z,18.80
2018-07-16T05:47:33.929Z,18.90
2018-07-16T05:50:03.147Z,19.10
2018-07-16T05:52:32.412Z,19.10
2018-07-16T05:55:02.568Z,19.40
2018-07-16T05:57:31.848Z,19.50
2018-07-16T06:00:01.328Z,19.70
2018-07-16T06:02:30.657Z,19.90
2018-07-16T06:05:00.025Z,20.10
2018-07-16T06:07:29.321Z,20.20
2018-07-16T06:09:59.110Z,20.50
2018-07-16T06:12:28.419Z,20.70
2018-07-16T06:14:57.833Z,20.60
2018-07-16T06:17:27.139Z,21.00
2018-07-16T06:19:56.399Z,21.30
2018-07-16T06:22:25.707Z,21.50
2018-07-16T06:24:55.112Z,21.80
2018-07-16T06:27:24.499Z,22.00
2018-07-16T06:29:54.158Z,22.30
2018-07-16T06:32:23.440Z,22.50
2018-07-16T06:34:52.631Z,22.70
2018-07-16T06:37:21.966Z,23.00
2018-07-16T06:39:51.292Z,23.30
2018-07-16T06:42:20.944Z,23.50
2018-07-16T06:44:50.272Z,23.60
2018-07-16T06:47:19.666Z,23.60
2018-07-16T06:49:49.006Z,23.70
2018-07-16T06:52:19.151Z,23.90
2018-07-16T06:54:48.487Z,23.90
2018-07-16T06:57:17.809Z,24.10
2018-07-16T06:59:47.163Z,24.30
2018-07-16T07:02:16.550Z,24.60
2018-07-16T07:04:45.841Z,24.80
2018-07-16T07:07:15.130Z,25.00
2018-07-16T07:09:44.465Z,25.10
2018-07-16T07:12:14.528Z,25.40
2018-07-16T07:14:43.819Z,25.60
2018-07-16T07:17:13.923Z,25.90
2018-07-16T07:19:43.214Z,25.70
2018-07-16T07:22:12.626Z,26.10
2018-07-16T07:24:41.931Z,26.50
2018-07-16T07:27:11.205Z,26.60
2018-07-16T07:29:41.353Z,26.90
2018-07-16T07:32:11.199Z,27.20
2018-07-16T07:34:40.558Z,27.30
2018-07-16T07:37:09.954Z,27.50
2018-07-16T07:39:39.257Z,27.70
2018-07-16T07:42:08.915Z,28.00
2018-07-16T07:44:38.440Z,28.20
2018-07-16T07:47:07.695Z,28.30
2018-07-16T07:49:36.985Z,28.30
2018-07-16T07:52:06.402Z,28.60
2018-07-16T07:54:35.835Z,28.70
2018-07-16T07:57:05.371Z,28.90
2018-07-16T07:59:34.756Z,29.10
2018-07-16T08:02:04.149Z,29.40
2018-07-16T08:04:34.240Z,29.40
2018-07-16T08:07:08.851Z,29.60
2018-07-16T08:09:38.268Z,29.70
2018-07-16T08:12:07.980Z,29.90
2018-07-16T08:14:37.663Z,30.00
2018-07-16T08:17:07.053Z,30.10
2018-07-16T08:19:36.469Z,30.30
2018-07-16T08:22:05.794Z,30.40
2018-07-16T08:24:35.699Z,30.40
2018-07-16T08:27:05.780Z,30.50
2018-07-16T08:29:35.132Z,30.90
2018-07-16T08:32:04.593Z,31.00
2018-07-16T08:34:33.891Z,30.90
2018-07-16T08:37:05.054Z,30.90
2018-07-16T08:39:34.777Z,31.00
2018-07-16T08:42:07.510Z,31.30
2018-07-16T08:44:36.843Z,31.40
2018-07-16T08:47:06.872Z,31.40
2018-07-16T08:49:36.200Z,31.50
2018-07-16T08:52:05.940Z,31.90
2018-07-16T08:54:35.329Z,32.30
2018-07-16T08:57:04.878Z,32.30
2018-07-16T08:59:34.240Z,32.40
2018-07-16T09:02:03.534Z,32.40
2018-07-16T09:04:32.835Z,32.40
2018-07-16T09:07:02.202Z,32.40
2018-07-16T09:09:32.022Z,32.60
2018-07-16T09:12:01.310Z,32.60
2018-07-16T09:14:30.519Z,32.80
2018-07-16T09:16:59.832Z,33.10
2018-07-16T09:19:30.308Z,32.90
2018-07-16T09:21:59.736Z,32.80
2018-07-16T09:24:29.033Z,32.80
2018-07-16T09:26:58.356Z,33.10
2018-07-16T09:29:27.639Z,33.10
2018-07-16T09:31:58.084Z,33.20
2018-07-16T09:34:27.460Z,33.60
2018-07-16T09:36:56.839Z,33.80
2018-07-16T09:39:26.144Z,33.70
2018-07-16T09:41:55.532Z,33.60
2018-07-16T09:44:24.895Z,33.40
2018-07-16T09:46:54.204Z,33.50
2018-07-16T09:49:23.598Z,33.90
2018-07-16T09:51:52.902Z,34.20
2018-07-16T09:54:22.292Z,34.20
2018-07-16T09:56:51.547Z,34.20
2018-07-16T09:59:20.847Z,34.60
2018-07-16T10:01:56.607Z,34.50
2018-07-16T10:04:25.923Z,34.20
2018-07-16T10:06:55.192Z,34.40
2018-07-16T10:09:24.529Z,34.50
2018-07-16T10:11:54.391Z,34.80
2018-07-16T10:14:24.525Z,34.70
2018-07-16T10:16:53.796Z,34.70
2018-07-16T10:19:23.145Z,35.00
2018-07-16T10:21:52.527Z,34.90
2018-07-16T10:24:21.886Z,34.90
2018-07-16T10:26:51.552Z,34.80
2018-07-16T10:29:20.767Z,34.90
2018-07-16T10:31:50.539Z,35.20
2018-07-16T10:34:19.861Z,35.10
2018-07-16T10:36:49.371Z,35.10
2018-07-16T10:39:18.708Z,35.30
2018-07-16T10:41:47.960Z,35.40
2018-07-16T10:44:17.266Z,35.80
2018-07-16T10:46:46.620Z,35.40
2018-07-16T10:49:15.937Z,35.20
2018-07-16T10:51:46.152Z,35.50
2018-07-16T10:54:15.552Z,35.50
2018-07-16T10:56:44.861Z,35.40
2018-07-16T10:59:14.726Z,35.60
2018-07-16T11:01:44.131Z,35.80
2018-07-16T11:04:13.797Z,35.70
2018-07-16T11:09:11.982Z,36.30
2018-07-16T11:11:41.367Z,36.50
2018-07-16T11:14:10.699Z,36.10
2018-07-16T11:16:40.703Z,36.20
2018-07-16T11:19:09.968Z,36.10
2018-07-16T11:21:39.250Z,36.00
2018-07-16T11:24:08.524Z,36.30
2018-07-16T11:26:37.758Z,36.40
2018-07-16T11:29:07.137Z,36.50
2018-07-16T11:31:36.453Z,36.50
2018-07-16T11:34:05.673Z,36.70
2018-07-16T11:36:34.940Z,36.40
2018-07-16T11:39:05.804Z,36.60
2018-07-16T11:41:35.122Z,36.70
2018-07-16T11:44:04.514Z,36.50
2018-07-16T11:46:33.779Z,36.60
2018-07-16T11:49:03.003Z,36.50
2018-07-16T11:51:32.414Z,36.30
2018-07-16T11:54:01.661Z,36.50
2018-07-16T11:56:30.961Z,36.50
2018-07-16T11:59:00.323Z,36.80
2018-07-16T12:01:30.581Z,37.10
2018-07-16T12:04:00.411Z,36.50
2018-07-16T12:06:29.756Z,36.20
2018-07-16T12:08:59.357Z,36.40
2018-07-16T12:11:28.662Z,36.50
2018-07-16T12:13:57.928Z,36.50
2018-07-16T12:16:27.324Z,36.90
2018-07-16T12:18:56.660Z,36.10
2018-07-16T12:21:25.951Z,36.60
2018-07-16T12:23:55.276Z,37.00
2018-07-16T12:26:24.552Z,36.60
2018-07-16T12:28:53.907Z,36.90
2018-07-16T12:31:23.196Z,36.90
2018-07-16T12:33:52.505Z,36.90
2018-07-16T12:36:22.199Z,36.80
2018-07-16T12:38:51.515Z,37.00
2018-07-16T12:41:20.814Z,37.00
2018-07-16T12:43:50.030Z,36.80
2018-07-16T12:46:19.295Z,36.70
2018-07-16T12:48:48.744Z,36.90
2018-07-16T12:51:18.097Z,36.60
2018-07-16T12:53:47.441Z,36.80
2018-07-16T12:56:16.754Z,37.10
2018-07-16T12:58:46.599Z,37.00
2018-07-16T13:01:15.876Z,37.00
2018-07-16T13:03:45.700Z,37.10
2018-07-16T13:06:18.491Z,37.10
2018-07-16T13:08:47.763Z,37.10
2018-07-16T13:11:17.007Z,37.00
2018-07-16T13:13:46.317Z,36.80
2018-07-16T13:16:16.099Z,36.60
2018-07-16T13:18:45.356Z,36.60
2018-07-16T13:21:14.773Z,36.70
2018-07-16T13:23:44.084Z,36.40
2018-07-16T13:26:13.440Z,36.20
2018-07-16T13:28:42.729Z,36.30
2018-07-16T13:31:12.048Z,36.30
2018-07-16T13:33:41.311Z,36.10
2018-07-16T13:36:10.611Z,36.30
2018-07-16T13:38:40.927Z,36.30
2018-07-16T13:41:10.191Z,36.20
2018-07-16T13:43:39.411Z,36.40
2018-07-16T13:46:08.731Z,36.00
2018-07-16T13:48:37.958Z,36.20
2018-07-16T13:51:07.709Z,36.40
2018-07-16T13:53:37.003Z,36.30
2018-07-16T13:56:06.576Z,36.30
2018-07-16T13:58:35.865Z,36.20
2018-07-16T14:01:05.228Z,36.20
2018-07-16T14:03:34.542Z,36.30
2018-07-16T14:06:03.835Z,36.10
2018-07-16T14:08:33.423Z,36.00
2018-07-16T14:11:02.768Z,36.20
2018-07-16T14:13:32.111Z,36.10
2018-07-16T14:16:02.053Z,35.90
2018-07-16T14:18:32.031Z,35.80
2018-07-16T14:23:30.292Z,35.50
2018-07-16T14:25:59.737Z,35.60
2018-07-16T14:28:29.019Z,35.40
2018-07-16T14:30:58.295Z,35.30
2018-07-16T14:33:27.701Z,35.00
2018-07-16T14:35:57.019Z,35.10
2018-07-16T14:38:26.344Z,35.10
2018-07-16T14:40:56.529Z,34.60
2018-07-16T14:43:25.828Z,34.60
2018-07-16T14:45:55.075Z,34.60
2018-07-16T14:48:24.436Z,34.60
2018-07-16T14:50:53.743Z,34.40
2018-07-16T14:53:22.988Z,34.60
2018-07-16T14:55:52.240Z,34.60
2018-07-16T14:58:21.641Z,34.60
2018-07-16T15:00:50.885Z,34.50
2018-07-16T15:03:20.635Z,34.20
2018-07-16T15:05:49.938Z,34.00
2018-07-16T15:08:19.460Z,34.10
2018-07-16T15:10:48.726Z,34.00
2018-07-16T15:13:18.056Z,33.80
2018-07-16T15:15:47.369Z,33.80
2018-07-16T15:18:16.664Z,33.70
2018-07-16T15:20:46.461Z,33.40
2018-07-16T15:23:16.042Z,33.20
2018-07-16T15:25:45.287Z,33.00
2018-07-16T15:28:14.892Z,32.90
2018-07-16T15:30:44.229Z,32.70
2018-07-16T15:33:13.926Z,32.40
2018-07-16T15:35:43.231Z,32.20
2018-07-16T15:38:13.152Z,32.00
2018-07-16T15:40:42.472Z,32.00
2018-07-16T15:43:11.731Z,31.90
2018-07-16T15:45:41.008Z,31.80
2018-07-16T15:48:10.336Z,31.70
2018-07-16T15:50:39.635Z,31.60
2018-07-16T15:53:08.926Z,31.50
2018-07-16T15:55:38.180Z,31.30
2018-07-16T15:58:07.525Z,31.00
2018-07-16T16:00:36.810Z,30.80
2018-07-16T16:03:06.208Z,30.70
2018-07-16T16:05:36.055Z,30.50
2018-07-16T16:08:05.435Z,30.50
2018-07-16T16:10:36.029Z,30.40
2018-07-16T16:13:05.406Z,30.40
2018-07-16T16:15:35.475Z,30.20
2018-07-16T16:18:05.250Z,30.10
2018-07-16T16:20:34.556Z,30.00
2018-07-16T16:23:03.923Z,29.90
2018-07-16T16:25:33.620Z,29.90
2018-07-16T16:28:02.914Z,29.80
2018-07-16T16:30:32.290Z,29.70
2018-07-16T16:33:01.724Z,29.60
2018-07-16T16:35:31.081Z,29.50
2018-07-16T16:38:01.027Z,29.40
2018-07-16T16:40:30.340Z,29.30
2018-07-16T16:42:59.620Z,29.30
2018-07-16T16:45:29.095Z,29.10
2018-07-16T16:47:58.584Z,29.10
2018-07-16T16:50:27.892Z,29.00
2018-07-16T16:52:57.209Z,29.00
2018-07-16T16:57:55.382Z,29.00
2018-07-16T17:00:24.672Z,29.00
2018-07-16T17:02:53.980Z,29.10
2018-07-16T17:05:23.296Z,29.10
2018-07-16T17:07:53.069Z,29.00
2018-07-16T17:10:22.367Z,28.90
2018-07-16T17:12:52.267Z,28.90
2018-07-16T17:15:21.625Z,28.80
2018-07-16T17:17:50.943Z,28.70
2018-07-16T17:20:20.684Z,28.60
2018-07-16T17:22:50.012Z,28.60
2018-07-16T17:25:19.464Z,28.50
2018-07-16T17:27:48.759Z,28.40
2018-07-16T17:30:18.093Z,28.40
2018-07-16T17:32:47.396Z,28.30
2018-07-16T17:35:17.291Z,28.20
2018-07-16T17:37:46.569Z,28.20
2018-07-16T17:40:16.391Z,28.10
2018-07-16T17:42:46.335Z,28.00
2018-07-16T17:45:15.705Z,28.00
2018-07-16T17:47:45.004Z,27.90
2018-07-16T17:50:14.304Z,27.90
2018-07-16T17:52:43.611Z,27.80
2018-07-16T17:55:13.072Z,27.60
2018-07-16T17:57:42.552Z,27.60
2018-07-16T18:00:11.858Z,27.50
2018-07-16T18:02:42.242Z,27.40
2018-07-16T18:05:11.564Z,27.30
2018-07-16T18:07:41.559Z,27.20
2018-07-16T18:10:11.325Z,27.10
2018-07-16T18:12:40.544Z,27.10
2018-07-16T18:15:09.850Z,27.00
2018-07-16T18:17:39.264Z,26.90
2018-07-16T18:20:08.614Z,26.80
2018-07-16T18:22:38.025Z,26.80
2018-07-16T18:25:07.309Z,26.80
2018-07-16T18:27:36.614Z,26.70
2018-07-16T18:30:05.941Z,26.60
2018-07-16T18:32:35.279Z,26.60
2018-07-16T18:35:04.855Z,26.50
2018-07-16T18:37:34.698Z,26.50
2018-07-16T18:40:04.675Z,26.40
2018-07-16T18:42:34.080Z,26.40
2018-07-16T18:45:03.971Z,26.30
2018-07-16T18:47:33.280Z,26.20
2018-07-16T18:50:02.694Z,26.20
2018-07-16T18:52:32.041Z,26.10
2018-07-16T18:55:01.387Z,26.10
2018-07-16T18:57:30.708Z,26.10
2018-07-16T19:00:00.380Z,26.10
2018-07-16T19:02:29.682Z,26.00
2018-07-16T19:04:59.070Z,25.90
2018-07-16T19:07:28.386Z,25.90
2018-07-16T19:09:57.653Z,25.70
2018-07-16T19:12:26.998Z,25.60
2018-07-16T19:14:56.319Z,25.50
2018-07-16T19:17:26.312Z,25.40
2018-07-16T19:19:55.720Z,25.30
2018-07-16T19:22:25.098Z,25.30
2018-07-16T19:24:54.432Z,25.20
2018-07-16T19:27:23.874Z,25.00
2018-07-16T19:29:53.233Z,24.80
2018-07-16T19:32:22.566Z,24.60
2018-07-16T19:34:53.263Z,24.40
2018-07-16T19:37:23.702Z,24.20
2018-07-16T19:39:53.833Z,24.00
2018-07-16T19:42:23.100Z,23.90
2018-07-16T19:44:52.509Z,23.80
2018-07-16T19:47:21.822Z,23.60
2018-07-16T19:49:51.214Z,23.50
2018-07-16T19:52:20.632Z,23.40
2018-07-16T19:54:49.929Z,23.20
2018-07-16T19:57:19.349Z,23.10
2018-07-16T19:59:48.624Z,23.00
2018-07-16T20:02:18.002Z,22.90
2018-07-16T20:04:47.945Z,22.80
2018-07-16T20:07:17.394Z,22.80
2018-07-16T20:09:47.559Z,22.70
2018-07-16T20:12:27.961Z,22.60
2018-07-16T20:14:57.610Z,22.60
2018-07-16T20:17:27.182Z,22.50
2018-07-16T20:19:57.046Z,22.40
2018-07-16T20:22:27.005Z,22.50
2018-07-16T20:24:56.494Z,22.50
2018-07-16T20:27:26.363Z,22.40
2018-07-16T20:29:55.695Z,22.20
2018-07-16T20:32:25.213Z,22.10
2018-07-16T20:34:54.578Z,22.00
2018-07-16T20:37:23.841Z,22.00
2018-07-16T20:39:53.144Z,22.10
2018-07-16T20:42:22.696Z,22.00
2018-07-16T20:44:52.437Z,21.90
2018-07-16T20:47:22.301Z,21.80
2018-07-16T20:49:51.684Z,21.80
2018-07-16T20:52:20.953Z,21.90
2018-07-16T20:54:51.041Z,21.80
2018-07-16T20:57:20.735Z,21.70
2018-07-16T20:59:50.765Z,21.60
2018-07-16T21:02:20.078Z,21.50
2018-07-16T21:04:49.489Z,21.40
2018-07-16T21:07:19.058Z,21.40
2018-07-16T21:09:48.303Z,21.40
2018-07-16T21:14:46.460Z,21.30
2018-07-16T21:17:15.758Z,21.30
2018-07-16T21:19:45.972Z,21.30
2018-07-16T21:22:15.342Z,21.20
2018-07-16T21:24:44.696Z,21.30
2018-07-16T21:27:14.122Z,21.30
2018-07-16T21:29:43.416Z,21.30
2018-07-16T21:32:13.584Z,21.20
2018-07-16T21:34:42.892Z,21.10
2018-07-16T21:37:12.293Z,21.20
2018-07-16T21:39:41.571Z,21.00
2018-07-16T21:42:10.910Z,20.90
2018-07-16T21:44:40.269Z,20.90
2018-07-16T21:47:09.567Z,21.00
2018-07-16T21:49:39.134Z,21.00
2018-07-16T21:52:08.451Z,21.00
2018-07-16T21:54:38.299Z,21.00
2018-07-16T21:57:07.888Z,21.00
2018-07-16T21:59:37.206Z,20.80
2018-07-16T22:02:06.840Z,20.80
2018-07-16T22:04:36.941Z,20.90
2018-07-16T22:07:06.368Z,20.80
2018-07-16T22:09:35.777Z,20.80
2018-07-16T22:12:05.126Z,21.00
2018-07-16T22:14:34.908Z,21.00
2018-07-16T22:17:04.223Z,21.00
2018-07-16T22:19:34.241Z,20.80
2018-07-16T22:22:03.668Z,20.70
2018-07-16T22:24:33.076Z,20.70
2018-07-16T22:27:02.355Z,20.80
2018-07-16T22:29:31.633Z,20.90
2018-07-16T22:32:01.043Z,21.00
2018-07-16T22:34:30.362Z,20.80
2018-07-16T22:36:59.685Z,20.80
2018-07-16T22:39:29.106Z,20.70
2018-07-16T22:41:59.000Z,20.70
2018-07-16T22:44:28.311Z,20.60
2018-07-16T22:46:57.653Z,20.60
2018-07-16T22:49:26.893Z,20.60
2018-07-16T22:51:56.916Z,20.60
2018-07-16T22:54:26.327Z,20.60
2018-07-16T22:56:55.563Z,20.60
2018-07-16T22:59:25.079Z,20.60
2018-07-16T23:01:54.278Z,20.70
2018-07-16T23:04:23.507Z,20.70
2018-07-16T23:06:52.737Z,20.70
2018-07-16T23:09:21.985Z,20.60
2018-07-16T23:11:51.196Z,20.40
2018-07-16T23:14:20.561Z,20.30
2018-07-16T23:16:49.794Z,20.30
2018-07-16T23:19:19.130Z,20.30
2018-07-16T23:21:48.366Z,20.50
2018-07-16T23:24:17.625Z,20.50
2018-07-16T23:26:47.152Z,20.40
2018-07-16T23:29:16.400Z,20.40
2018-07-16T23:31:45.755Z,20.40
2018-07-16T23:34:15.040Z,20.30
2018-07-16T23:36:44.431Z,20.50
2018-07-16T23:39:13.798Z,20.50
2018-07-16T23:41:43.797Z,20.50
2018-07-16T23:44:13.103Z,20.40
2018-07-16T23:46:42.435Z,20.50
2018-07-16T23:49:11.730Z,20.50
2018-07-16T23:51:40.983Z,20.40
2018-07-16T23:54:10.306Z,20.30
2018-07-16T23:56:39.670Z,20.10
